createdAt,value
2022-10-08T00:00:01.462Z,0.00
2022-10-08T00:10:01.097Z,0.00
2022-10-08T00:20:01.303Z,0.00
2022-10-08T00:30:02.816Z,0.00
2022-10-08T00:40:02.143Z,0.00
2022-10-08T00:50:02.762Z,0.00
2022-10-08T01:00:01.507Z,0.00
2022-10-08T01:10:00.125Z,0.00
2022-10-08T01:20:02.113Z,0.00
2022-10-08T01:30:01.168Z,0.00
2022-10-08T01:40:00.150Z,0.00
2022-10-08T01:50:01.468Z,0.00
2022-10-08T02:00:01.343Z,0.00
2022-10-08T02:10:01.055Z,0.00
2022-10-08T02:20:01.026Z,0.00
2022-10-08T02:30:00.153Z,0.00
2022-10-08T02:40:01.000Z,0.00
2022-10-08T02:50:01.274Z,0.00
2022-10-08T03:00:00.147Z,0.00
2022-10-08T03:10:01.193Z,0.00
2022-10-08T03:20:01.706Z,0.00
2022-10-08T03:30:00.134Z,0.00
2022-10-08T03:40:00.147Z,0.00
2022-10-08T03:50:00.117Z,0.00
2022-10-08T04:00:00.149Z,0.00
2022-10-08T04:10:01.001Z,0.00
2022-10-08T04:20:00.156Z,0.00
2022-10-08T04:30:00.961Z,0.00
2022-10-08T04:40:01.559Z,0.00
2022-10-08T04:50:01.182Z,0.57
2022-10-08T05:00:17.269Z,4.64
2022-10-08T05:10:00.959Z,10.00
2022-10-08T05:20:01.031Z,36.67
2022-10-08T05:30:01.283Z,173.75
2022-10-08T05:40:00.164Z,130.00
2022-10-08T05:50:01.084Z,330.83
2022-10-08T06:00:01.085Z,432.92
2022-10-08T06:10:01.225Z,276.67
2022-10-08T06:20:01.031Z,336.67
2022-10-08T06:30:00.990Z,415.00
2022-10-08T06:50:01.468Z,520.00
2022-10-08T07:00:01.083Z,1353.33
2022-10-08T07:10:00.252Z,1183.75
2022-10-08T07:20:01.067Z,571.67
2022-10-08T07:30:01.025Z,765.00
2022-10-08T07:50:00.131Z,788.33
2022-10-08T08:00:01.066Z,1710.00
2022-10-08T08:10:00.150Z,1761.67
2022-10-08T08:20:00.979Z,1834.17
2022-10-08T08:30:01.227Z,1938.33
2022-10-08T08:40:01.023Z,2086.25
2022-10-08T08:50:01.269Z,1620.00
2022-10-08T09:10:00.151Z,3971.67
2022-10-08T09:20:00.136Z,4033.75
2022-10-08T09:30:00.119Z,7929.17
2022-10-08T09:40:02.822Z,8693.75
2022-10-08T09:50:01.009Z,7136.67
2022-10-08T10:00:01.569Z,5227.50
2022-10-08T10:10:03.147Z,8752.08
2022-10-08T10:20:01.391Z,3141.67
2022-10-08T10:30:01.005Z,5429.58
2022-10-08T10:40:01.841Z,6681.25
2022-10-08T10:50:01.525Z,4086.25
2022-10-08T11:00:00.162Z,1135.00
2022-10-08T11:10:01.288Z,1438.33
2022-10-08T11:20:01.023Z,1330.00
2022-10-08T11:30:00.128Z,1609.58
2022-10-08T11:40:01.037Z,1521.25
2022-10-08T11:50:02.921Z,1610.42
2022-10-08T12:00:07.061Z,4687.50
2022-10-08T12:10:01.436Z,4761.67
2022-10-08T12:20:01.068Z,6081.25
2022-10-08T12:30:01.429Z,10894.58
2022-10-08T12:40:01.264Z,5902.08
2022-10-08T12:50:01.121Z,18637.08
2022-10-08T13:00:02.143Z,26315.83
2022-10-08T13:10:01.465Z,6108.75
2022-10-08T13:20:01.267Z,23207.92
2022-10-08T13:30:01.250Z,23367.92
2022-10-08T13:40:01.544Z,19257.92
2022-10-08T13:50:01.031Z,22123.33
2022-10-08T14:00:01.104Z,20913.75
2022-10-08T14:10:01.238Z,19939.17
2022-10-08T14:20:01.300Z,18764.17
2022-10-08T14:30:01.208Z,1755.00
2022-10-08T14:50:01.442Z,650.00
2022-10-08T15:00:00.157Z,923.33
2022-10-08T15:10:01.034Z,13195.83
2022-10-08T15:20:00.151Z,1145.42
2022-10-08T15:30:01.031Z,176.67
2022-10-08T15:40:01.547Z,285.42
2022-10-08T15:50:00.145Z,118.33
2022-10-08T16:00:02.657Z,101.67
2022-10-08T16:10:00.176Z,66.67
2022-10-08T16:20:01.151Z,71.67
2022-10-08T16:30:00.107Z,38.33
2022-10-08T16:40:01.079Z,30.42
2022-10-08T16:50:01.074Z,6.23
2022-10-08T17:00:01.519Z,1.47
2022-10-08T17:10:03.479Z,0.23
2022-10-08T17:20:01.335Z,0.00
2022-10-08T17:30:02.300Z,0.00
2022-10-08T17:40:00.171Z,0.00
2022-10-08T17:50:01.041Z,0.00
2022-10-08T18:10:01.016Z,0.00
2022-10-08T18:20:00.987Z,0.00
2022-10-08T18:30:01.056Z,0.00
2022-10-08T18:40:00.983Z,0.00
2022-10-08T18:50:01.201Z,0.00
2022-10-08T19:00:02.810Z,0.00
2022-10-08T19:10:00.159Z,0.00
2022-10-08T19:20:01.239Z,0.00
2022-10-08T19:30:01.035Z,0.00
2022-10-08T19:40:01.266Z,0.00
2022-10-08T19:50:01.224Z,0.00
2022-10-08T20:00:01.284Z,0.00
2022-10-08T20:10:00.980Z,0.00
2022-10-08T20:20:20.828Z,0.00
2022-10-08T20:30:01.291Z,0.00
2022-10-08T20:40:01.014Z,0.00
2022-10-08T20:50:01.473Z,0.00
2022-10-08T21:00:01.473Z,0.00
2022-10-08T21:10:01.095Z,0.00
2022-10-08T21:20:00.147Z,0.00
2022-10-08T21:30:01.257Z,0.00
2022-10-08T21:40:01.223Z,0.00
2022-10-08T21:50:01.051Z,0.00
2022-10-08T22:00:02.615Z,0.00
2022-10-08T22:10:01.430Z,0.00
2022-10-08T22:20:01.009Z,0.00
2022-10-08T22:30:03.460Z,0.00
2022-10-08T22:40:01.016Z,0.00
2022-10-08T22:50:03.594Z,0.00
2022-10-08T23:00:00.137Z,0.00
2022-10-08T23:10:01.057Z,0.00
2022-10-08T23:20:01.492Z,0.00
2022-10-08T23:30:00.984Z,0.00
2022-10-08T23:40:01.439Z,0.00
2022-10-08T23:50:00.167Z,0.00
